Time;durP1;ratioP1;P1;durP2;ratioP2;P2;SDS_P1;SDS_P2;PMS_P1;PMS_P2;Temp;Humidity;BMP_temperature;BMP_pressure;BME280_temperature;BME280_humidity;BME280_pressure;Samples;Min_cycle;Max_cycle;Signal;HPM_P1;HPM_P2
2023/08/17 00:02:15;;;;;;;0.40;0.40;;;;;;;21.44;61.61;96754.56;10492844;28;20290;-29
2023/08/17 00:07:15;;;;;;;0.47;0.47;;;;;;;21.47;61.52;96754.53;10490698;28;20111;-30
2023/08/17 00:12:16;;;;;;;0.20;0.20;;;;;;;21.46;61.64;96760.47;10492516;28;20373;-29
2023/08/17 00:17:16;;;;;;;0.60;0.60;;;;;;;21.46;61.66;96757.09;10486555;28;20036;-29
2023/08/17 00:22:16;;;;;;;0.30;0.30;;;;;;;21.47;61.64;96748.59;10493131;28;20087;-29
2023/08/17 00:27:17;;;;;;;0.30;0.30;;;;;;;21.47;61.48;96753.69;10483146;28;20286;-29
2023/08/17 00:32:17;;;;;;;0.30;0.30;;;;;;;21.47;61.54;96749.44;10492203;28;20064;-29
2023/08/17 00:37:17;;;;;;;0.40;0.40;;;;;;;21.46;61.50;96741.81;10486226;28;20037;-30
2023/08/17 00:42:18;;;;;;;0.50;0.50;;;;;;;21.45;61.42;96745.19;10484877;28;20041;-29
2023/08/17 00:47:18;;;;;;;0.40;0.40;;;;;;;21.46;61.38;96742.66;10491866;28;20029;-29
2023/08/17 00:52:19;;;;;;;0.30;0.30;;;;;;;21.47;61.41;96736.69;10483803;28;20123;-29
2023/08/17 00:57:20;;;;;;;0.30;0.30;;;;;;;21.47;61.45;96739.25;10491546;28;20435;-30
2023/08/17 01:02:21;;;;;;;0.30;0.30;;;;;;;21.47;61.36;96744.34;10483298;28;20048;-29
2023/08/17 01:07:21;;;;;;;0.32;0.32;;;;;;;21.46;61.39;96731.63;10489970;28;20035;-29
2023/08/17 01:12:36;;;;;;;0.20;0.20;;;;;;;21.46;61.36;96735.00;10486260;28;20380;-28
2023/08/17 01:17:48;;;;;;;0.32;0.32;;;;;;;21.40;61.20;96727.44;10482547;28;20044;-29
2023/08/17 01:22:51;;;;;;;0.30;0.30;;;;;;;21.47;61.59;96736.69;10490881;28;20534;-29
2023/08/17 01:27:54;;;;;;;0.40;0.40;;;;;;;21.46;61.22;96742.66;10481639;28;20056;-29
2023/08/17 01:33:00;;;;;;;0.50;0.50;;;;;;;21.47;61.41;96735.88;10497539;28;20078;-29
2023/08/17 01:38:09;;;;;;;0.40;0.40;;;;;;;21.48;61.33;96745.19;10496812;28;20043;-29
2023/08/17 01:43:10;;;;;;;0.52;0.52;;;;;;;21.48;61.24;96751.09;10498723;28;20036;-29
2023/08/17 01:48:10;;;;;;;0.32;0.32;;;;;;;21.48;61.35;96758.75;10488553;28;20025;-29
2023/08/17 01:53:11;;;;;;;0.52;0.40;;;;;;;21.48;61.63;96753.66;10491070;28;20403;-30
2023/08/17 01:58:12;;;;;;;0.47;0.40;;;;;;;21.48;61.20;96756.22;10495097;28;20044;-30
2023/08/17 02:03:12;;;;;;;0.50;0.50;;;;;;;21.47;61.10;96754.53;10492804;28;20067;-29
2023/08/17 02:08:13;;;;;;;0.40;0.40;;;;;;;21.48;61.21;96756.22;10498097;28;20075;-29
2023/08/17 02:13:14;;;;;;;0.30;0.30;;;;;;;21.47;61.05;96754.53;10495278;28;20067;-29
2023/08/17 02:18:14;;;;;;;0.40;0.40;;;;;;;21.46;61.25;96747.75;10496005;28;20032;-30
2023/08/17 02:23:15;;;;;;;0.57;0.50;;;;;;;21.48;61.19;96743.47;10495677;28;20520;-30
2023/08/17 02:28:16;;;;;;;0.32;0.32;;;;;;;21.49;61.25;96732.41;10493567;28;20093;-32
2023/08/17 02:33:16;;;;;;;0.70;0.60;;;;;;;21.48;61.10;96735.81;10491061;28;20052;-30
2023/08/17 02:38:17;;;;;;;1.10;0.90;;;;;;;21.48;61.13;96727.34;10493364;28;20175;-29
2023/08/17 02:43:17;;;;;;;0.40;0.40;;;;;;;21.43;61.14;96717.22;10494013;28;20037;-29
2023/08/17 02:48:18;;;;;;;0.40;0.40;;;;;;;21.47;60.97;96718.84;10496411;28;20028;-29
2023/08/17 02:53:18;;;;;;;0.33;0.33;;;;;;;21.48;61.12;96720.53;10493412;28;20028;-29
2023/08/17 02:58:19;;;;;;;0.30;0.30;;;;;;;21.48;61.14;96715.44;10495656;28;20370;-29
2023/08/17 03:03:19;;;;;;;0.30;0.30;;;;;;;21.48;61.08;96709.53;10491297;28;20033;-30
2023/08/17 03:08:20;;;;;;;0.50;0.30;;;;;;;21.49;61.14;96713.75;10495547;28;20043;-29
2023/08/17 03:13:20;;;;;;;0.50;0.40;;;;;;;21.48;60.89;96694.25;10492480;28;20037;-30
2023/08/17 03:18:20;;;;;;;0.77;0.50;;;;;;;21.49;60.86;96701.03;10493599;28;20416;-29
2023/08/17 03:23:21;;;;;;;0.38;0.38;;;;;;;21.45;61.11;96690.03;10492655;28;20949;-30
2023/08/17 03:28:22;;;;;;;0.43;0.43;;;;;;;21.48;61.20;96700.16;10490551;28;20483;-29
2023/08/17 03:33:23;;;;;;;0.40;0.40;;;;;;;21.49;60.95;96699.28;10494400;28;20032;-29
2023/08/17 03:38:23;;;;;;;0.38;0.38;;;;;;;21.49;61.08;96701.84;10490549;28;20036;-30
2023/08/17 03:43:25;;;;;;;0.40;0.40;;;;;;;21.49;61.06;96701.03;10492568;28;20040;-29
2023/08/17 03:48:25;;;;;;;0.40;0.40;;;;;;;21.49;61.42;96698.47;10486950;28;20850;-29
2023/08/17 03:53:26;;;;;;;0.50;0.50;;;;;;;21.48;60.87;96700.16;10491862;28;20098;-30
2023/08/17 03:58:34;;;;;;;0.40;0.40;;;;;;;21.49;61.05;96706.13;10490837;28;20810;-30
2023/08/17 04:03:34;;;;;;;0.40;0.40;;;;;;;21.48;60.92;96720.53;10489148;28;20322;-29
2023/08/17 04:08:35;;;;;;;0.47;0.47;;;;;;;21.49;61.01;96717.13;10491670;28;20070;-29
2023/08/17 04:13:35;;;;;;;0.40;0.40;;;;;;;21.49;60.99;96716.31;10484175;28;20283;-30
2023/08/17 04:18:36;;;;;;;0.30;0.30;;;;;;;21.46;61.01;96717.19;10492583;28;20063;-29
2023/08/17 04:23:36;;;;;;;0.40;0.40;;;;;;;21.48;60.92;96724.81;10489936;28;20120;-28
2023/08/17 04:28:36;;;;;;;0.40;0.37;;;;;;;21.49;60.88;96732.41;10489000;28;20032;-30
2023/08/17 04:33:39;;;;;;;0.50;0.50;;;;;;;21.49;60.57;96737.50;10490858;28;20035;-29
2023/08/17 04:38:40;;;;;;;0.40;0.40;;;;;;;21.48;60.92;96730.72;10488078;28;20036;-29
2023/08/17 04:43:41;;;;;;;0.40;0.40;;;;;;;21.48;60.90;96723.09;10490592;28;20032;-29
2023/08/17 04:48:41;;;;;;;0.50;0.50;;;;;;;21.47;60.77;96723.13;10488951;28;20025;-29
2023/08/17 04:53:42;;;;;;;0.40;0.35;;;;;;;21.49;60.72;96723.94;10491547;28;20402;-30
2023/08/17 04:58:43;;;;;;;0.40;0.40;;;;;;;21.50;60.73;96728.19;10489590;28;20024;-29
2023/08/17 05:03:46;;;;;;;0.40;0.40;;;;;;;21.49;60.59;96719.69;10491119;28;20063;-29
2023/08/17 05:08:46;;;;;;;0.63;0.63;;;;;;;21.49;60.81;96722.22;10489400;28;20059;-29
2023/08/17 05:13:47;;;;;;;0.65;0.40;;;;;;;21.46;60.64;96717.19;10484029;28;20404;-29
2023/08/17 05:18:48;;;;;;;0.30;0.30;;;;;;;21.50;60.85;96718.84;10489493;28;20035;-29
2023/08/17 05:23:50;;;;;;;0.50;0.50;;;;;;;21.49;60.72;96726.50;10488372;28;20075;-30
2023/08/17 05:28:51;;;;;;;0.32;0.32;;;;;;;21.49;60.73;96727.31;10491034;28;20039;-29
2023/08/17 05:33:51;;;;;;;0.38;0.38;;;;;;;21.50;60.59;96726.47;10484511;28;20048;-29
2023/08/17 05:38:52;;;;;;;0.40;0.40;;;;;;;21.50;60.66;96729.03;10489263;28;20453;-31
2023/08/17 05:43:53;;;;;;;0.43;0.43;;;;;;;21.49;60.67;96732.41;10482626;28;20082;-29
2023/08/17 05:48:53;;;;;;;0.40;0.40;;;;;;;21.49;60.57;96734.97;10487656;28;20031;-35
2023/08/17 05:53:53;;;;;;;0.57;0.50;;;;;;;21.50;60.64;96739.22;10490040;28;20501;-30
2023/08/17 05:58:54;;;;;;;0.75;0.57;;;;;;;21.50;60.60;96733.28;10482860;28;20298;-29
2023/08/17 06:03:54;;;;;;;0.50;0.50;;;;;;;21.50;60.61;96733.28;10491673;28;20052;-29
2023/08/17 06:08:54;;;;;;;0.50;0.40;;;;;;;21.45;60.43;96724.81;10490648;28;20024;-29
2023/08/17 06:13:55;;;;;;;0.40;0.40;;;;;;;21.50;60.56;96729.03;10493863;28;20119;-31
2023/08/17 06:18:55;;;;;;;0.40;0.40;;;;;;;21.50;60.46;96735.81;10489747;28;20242;-30
2023/08/17 06:23:56;;;;;;;0.50;0.47;;;;;;;21.50;60.45;96733.28;10498295;28;20036;-32
2023/08/17 06:28:56;;;;;;;0.90;0.60;;;;;;;21.51;60.55;96730.72;10494246;28;20067;-29
2023/08/17 06:33:57;;;;;;;1.17;0.52;;;;;;;21.51;60.48;96728.16;10493613;28;20032;-29
2023/08/17 06:38:57;;;;;;;0.47;0.47;;;;;;;21.52;60.54;96727.31;10496880;28;20509;-29
2023/08/17 06:43:58;;;;;;;0.40;0.40;;;;;;;21.51;60.39;96735.81;10489929;28;20522;-30
2023/08/17 06:48:58;;;;;;;0.40;0.40;;;;;;;21.52;60.61;96746.81;10496556;28;20287;-29
2023/08/17 06:53:58;;;;;;;0.47;0.47;;;;;;;21.53;60.65;96748.50;10488911;28;20032;-30
2023/08/17 06:58:59;;;;;;;0.50;0.50;;;;;;;21.52;60.59;96755.31;10488531;28;20064;-29
2023/08/17 07:03:59;;;;;;;0.47;0.40;;;;;;;21.52;60.65;96757.00;10495752;28;20025;-31
2023/08/17 07:08:59;;;;;;;0.60;0.60;;;;;;;21.52;60.73;96762.97;10490629;28;20123;-29
2023/08/17 07:14:00;;;;;;;1.27;0.73;;;;;;;21.51;60.65;96760.44;10494861;28;20036;-31
2023/08/17 07:19:00;;;;;;;0.40;0.40;;;;;;;21.52;60.70;96767.22;10487123;28;20036;-29
2023/08/17 07:24:11;;;;;;;0.40;0.40;;;;;;;21.52;60.77;96773.16;10492049;28;20025;-29
2023/08/17 07:29:12;;;;;;;0.43;0.43;;;;;;;21.52;60.65;96770.59;10494640;28;20784;-29
2023/08/17 07:34:12;;;;;;;0.60;0.60;;;;;;;21.50;60.59;96779.97;10486030;28;20032;-29
2023/08/17 07:39:13;;;;;;;0.50;0.50;;;;;;;21.50;60.78;96782.53;10494156;28;20781;-29
2023/08/17 07:44:13;;;;;;;0.40;0.40;;;;;;;21.52;60.81;96793.53;10487352;28;20291;-30
2023/08/17 07:49:13;;;;;;;0.53;0.53;;;;;;;21.53;60.58;96795.22;10493946;28;20033;-29
2023/08/17 07:54:14;;;;;;;0.50;0.47;;;;;;;21.52;60.70;96788.44;10487522;28;20036;-31
2023/08/17 07:59:14;;;;;;;0.50;0.50;;;;;;;21.53;60.77;96796.91;10485844;28;20036;-29
2023/08/17 08:04:14;;;;;;;0.70;0.70;;;;;;;21.53;60.77;96802.88;10493714;28;20060;-29
2023/08/17 08:09:15;;;;;;;1.13;0.70;;;;;;;21.52;60.91;96813.06;10485477;28;20504;-30
2023/08/17 08:14:17;;;;;;;0.40;0.37;;;;;;;21.52;60.79;96816.47;10488215;28;20479;-30
2023/08/17 08:19:18;;;;;;;0.60;0.60;;;;;;;21.48;60.77;96814.78;10492506;28;20506;-29
2023/08/17 08:24:18;;;;;;;0.40;0.40;;;;;;;21.53;60.78;96820.69;10489657;28;20072;-29
2023/08/17 08:29:19;;;;;;;0.47;0.47;;;;;;;21.55;60.75;96828.34;10492507;28;20045;-29
2023/08/17 08:34:19;;;;;;;0.50;0.50;;;;;;;21.53;60.88;96824.94;10486103;28;20302;-29
2023/08/17 08:39:19;;;;;;;0.60;0.60;;;;;;;21.54;60.77;96832.56;10489150;28;20340;-30
2023/08/17 08:44:20;;;;;;;0.67;0.67;;;;;;;21.54;60.84;96832.56;10485336;28;20073;-29
2023/08/17 08:49:23;;;;;;;0.85;0.50;;;;;;;21.54;60.88;96830.03;10490451;28;20028;-28
2023/08/17 08:54:26;;;;;;;0.82;0.50;;;;;;;21.54;60.98;96837.66;10491767;28;20044;-30
2023/08/17 08:59:28;;;;;;;0.60;0.52;;;;;;;21.55;60.82;96838.53;10485373;28;20483;-29
2023/08/17 09:04:28;;;;;;;0.57;0.57;;;;;;;21.55;60.69;96834.25;10491513;28;20025;-29
2023/08/17 09:09:30;;;;;;;0.50;0.45;;;;;;;21.54;60.88;96824.94;10482494;28;20499;-29
2023/08/17 09:14:30;;;;;;;0.47;0.47;;;;;;;21.54;60.82;96822.38;10490712;28;20033;-29
2023/08/17 09:19:34;;;;;;;0.63;0.63;;;;;;;21.54;60.85;96822.38;10485701;28;20029;-29
2023/08/17 09:24:38;;;;;;;0.50;0.50;;;;;;;21.54;60.89;96817.28;10483970;28;20032;-29
2023/08/17 09:29:43;;;;;;;0.60;0.60;;;;;;;21.55;60.75;96808.78;10491065;28;20059;-29
2023/08/17 09:34:44;;;;;;;0.50;0.50;;;;;;;21.54;60.67;96801.16;10488884;28;20028;-30
2023/08/17 09:39:44;;;;;;;0.40;0.40;;;;;;;21.53;60.86;96795.22;10487119;28;20124;-30
2023/08/17 09:44:45;;;;;;;0.60;0.50;;;;;;;21.55;60.92;96806.22;10487166;28;20039;-30
2023/08/17 09:49:51;;;;;;;0.82;0.47;;;;;;;21.56;60.99;96802.81;10486665;28;20028;-29
2023/08/17 09:54:54;;;;;;;0.50;0.50;;;;;;;21.55;60.81;96798.59;10498516;28;20033;-29
2023/08/17 09:59:54;;;;;;;0.70;0.70;;;;;;;21.56;60.88;96796.91;10490634;28;20038;-30
2023/08/17 10:04:57;;;;;;;0.43;0.43;;;;;;;21.57;61.11;96789.22;10497945;28;20028;-29
2023/08/17 10:10:04;;;;;;;0.70;0.70;;;;;;;21.58;61.04;96788.38;10488429;28;20505;-29
2023/08/17 10:15:10;;;;;;;0.90;0.75;;;;;;;21.57;61.04;96791.78;10491956;28;20036;-29
2023/08/17 10:20:13;;;;;;;0.73;0.73;;;;;;;21.59;61.00;96794.31;10497225;28;20037;-29
2023/08/17 10:25:14;;;;;;;0.60;0.60;;;;;;;21.58;60.96;96790.94;10496574;28;20510;-30
2023/08/17 10:30:15;;;;;;;0.70;0.70;;;;;;;21.54;61.14;96775.66;10487962;28;20487;-29
2023/08/17 10:35:15;;;;;;;0.50;0.50;;;;;;;21.58;61.12;96773.09;10496953;28;20024;-30
2023/08/17 10:40:16;;;;;;;0.65;0.65;;;;;;;21.58;61.28;96773.09;10482877;28;20094;-32
2023/08/17 10:45:25;;;;;;;0.50;0.50;;;;;;;21.59;61.07;96774.78;10496479;28;20133;-30
2023/08/17 10:50:26;;;;;;;0.80;0.80;;;;;;;21.60;61.29;96771.38;10487092;28;20120;-30
2023/08/17 10:55:38;;;;;;;0.80;0.80;;;;;;;21.55;61.33;96757.00;10495976;28;20413;-29
2023/08/17 11:00:39;;;;;;;0.70;0.70;;;;;;;21.61;61.74;96757.75;10492768;28;20036;-29
2023/08/17 11:05:41;;;;;;;0.70;0.70;;;;;;;21.55;61.50;96727.25;10496397;28;20036;-30
2023/08/17 11:10:46;;;;;;;0.60;0.60;;;;;;;21.56;61.50;96716.19;10487944;28;20044;-29
2023/08/17 11:15:48;;;;;;;0.60;0.60;;;;;;;21.61;61.40;96719.53;10495191;28;20479;-30
2023/08/17 11:20:50;;;;;;;0.70;0.70;;;;;;;21.61;61.65;96711.91;10490968;28;20036;-29
2023/08/17 11:25:52;;;;;;;0.77;0.77;;;;;;;21.62;61.76;96712.72;10491642;28;20093;-29
2023/08/17 11:31:01;;;;;;;0.57;0.57;;;;;;;21.63;61.67;96720.38;10494557;28;20097;-29
2023/08/17 11:36:03;;;;;;;0.65;0.60;;;;;;;21.59;61.54;96716.19;10491511;28;20187;-29
2023/08/17 11:41:04;;;;;;;0.60;0.60;;;;;;;21.61;61.69;96711.91;10494182;28;20502;-31
2023/08/17 11:46:05;;;;;;;0.73;0.73;;;;;;;21.64;62.03;96708.47;10491252;28;20025;-29
2023/08/17 11:51:05;;;;;;;0.70;0.70;;;;;;;21.64;61.68;96700.84;10490337;28;20567;-29
2023/08/17 11:56:06;;;;;;;0.63;0.52;;;;;;;21.65;61.84;96697.44;10493467;28;20037;-29
2023/08/17 12:01:10;;;;;;;0.75;0.75;;;;;;;21.65;62.09;96690.63;10484363;28;20521;-29
2023/08/17 12:06:12;;;;;;;0.70;0.70;;;;;;;21.65;62.06;96688.09;10493292;28;20043;-29
2023/08/17 12:11:13;;;;;;;0.60;0.60;;;;;;;21.65;61.86;96683.00;10489308;28;20451;-29
2023/08/17 12:16:17;;;;;;;0.95;0.68;;;;;;;21.64;62.06;96681.28;10488509;28;20112;-29
2023/08/17 12:21:22;;;;;;;0.65;0.65;;;;;;;21.65;61.77;96682.16;10491773;28;20044;-29
2023/08/17 12:26:22;;;;;;;0.65;0.65;;;;;;;21.64;61.73;96676.19;10485705;28;20037;-30
2023/08/17 12:31:23;;;;;;;0.73;0.70;;;;;;;21.63;61.78;96674.50;10491988;28;20037;-30
2023/08/17 12:36:23;;;;;;;0.50;0.50;;;;;;;21.65;62.00;96674.53;10490235;28;20032;-29
2023/08/17 12:41:24;;;;;;;0.50;0.50;;;;;;;21.65;61.77;96665.16;10492072;28;20032;-30
2023/08/17 12:46:25;;;;;;;0.70;0.70;;;;;;;21.64;61.72;96668.53;10485430;28;20051;-30
2023/08/17 12:51:25;;;;;;;0.60;0.60;;;;;;;21.63;61.90;96677.03;10483503;28;20517;-29
2023/08/17 12:56:25;;;;;;;0.60;0.60;;;;;;;21.63;61.82;96671.13;10491576;28;20025;-29
2023/08/17 13:01:26;;;;;;;1.00;0.90;;;;;;;21.64;61.94;96677.91;10484722;28;20032;-30
2023/08/17 13:06:26;;;;;;;0.80;0.80;;;;;;;21.65;61.84;96677.91;10492746;28;20321;-29
2023/08/17 13:11:26;;;;;;;0.90;0.70;;;;;;;21.65;61.69;96677.91;10488731;28;20044;-30
2023/08/17 13:16:27;;;;;;;0.60;0.60;;;;;;;21.64;61.92;96676.19;10492782;28;20077;-29
2023/08/17 13:21:27;;;;;;;0.60;0.60;;;;;;;21.65;61.84;96675.34;10489025;28;20050;-29
2023/08/17 13:26:28;;;;;;;0.70;0.70;;;;;;;21.67;62.14;96677.88;10495738;28;20025;-30
2023/08/17 13:31:31;;;;;;;0.80;0.80;;;;;;;21.66;62.17;96681.31;10490877;28;20036;-30
2023/08/17 13:36:32;;;;;;;0.50;0.50;;;;;;;21.67;62.14;96681.28;10482402;28;20563;-29
2023/08/17 13:41:32;;;;;;;0.70;0.70;;;;;;;21.66;62.19;96679.56;10498885;28;20038;-29
2023/08/17 13:46:33;;;;;;;0.70;0.70;;;;;;;21.64;61.93;96675.34;10491422;28;20033;-30
2023/08/17 13:51:33;;;;;;;0.60;0.60;;;;;;;21.65;61.85;96677.91;10498572;28;20037;-29
2023/08/17 13:56:33;;;;;;;0.60;0.60;;;;;;;21.67;61.98;96676.19;10495835;28;20491;-30
2023/08/17 14:01:34;;;;;;;0.60;0.60;;;;;;;21.65;62.09;96670.25;10490527;28;20032;-30
2023/08/17 14:06:34;;;;;;;0.50;0.50;;;;;;;21.66;61.90;96668.56;10498178;28;20281;-30
2023/08/17 14:11:34;;;;;;;1.37;1.00;;;;;;;21.63;61.96;96664.31;10489258;28;20113;-30
2023/08/17 14:16:36;;;;;;;0.60;0.60;;;;;;;21.65;62.00;96670.25;10497242;28;20029;-30
2023/08/17 14:21:36;;;;;;;0.60;0.60;;;;;;;21.67;62.31;96676.19;10494744;28;20024;-29
2023/08/17 14:26:36;;;;;;;0.60;0.60;;;;;;;21.66;62.22;96666.84;10497339;28;20038;-30
2023/08/17 14:31:37;;;;;;;0.60;0.60;;;;;;;21.61;61.77;96655.84;10492107;28;20119;-30
2023/08/17 14:36:40;;;;;;;0.63;0.63;;;;;;;21.65;62.13;96662.59;10496346;28;20090;-29
2023/08/17 14:41:40;;;;;;;0.63;0.63;;;;;;;21.67;61.78;96660.91;10490452;28;20391;-29
2023/08/17 14:46:42;;;;;;;0.70;0.70;;;;;;;21.68;62.03;96651.53;10496539;28;20037;-30
2023/08/17 14:51:42;;;;;;;0.60;0.60;;;;;;;21.65;62.15;96652.41;10487994;28;20062;-30
2023/08/17 14:56:43;;;;;;;0.50;0.50;;;;;;;21.68;62.13;96647.28;10492771;28;20062;-30
2023/08/17 15:01:44;;;;;;;0.60;0.60;;;;;;;21.68;62.18;96643.88;10495714;28;20040;-29
2023/08/17 15:06:44;;;;;;;0.65;0.65;;;;;;;21.68;62.00;96644.75;10487046;28;20426;-30
2023/08/17 15:11:45;;;;;;;0.80;0.80;;;;;;;21.68;62.15;96649.84;10495138;28;20127;-29
2023/08/17 15:16:46;;;;;;;0.55;0.55;;;;;;;21.64;62.17;96629.50;10490496;28;20402;-30
2023/08/17 15:21:46;;;;;;;0.40;0.40;;;;;;;21.68;61.71;96637.09;10487053;28;20032;-29
2023/08/17 15:26:46;;;;;;;0.60;0.50;;;;;;;21.67;62.03;96645.63;10494794;28;20275;-29
2023/08/17 15:31:47;;;;;;;0.63;0.63;;;;;;;21.67;62.14;96640.53;10493451;28;20036;-30
2023/08/17 15:36:47;;;;;;;0.50;0.50;;;;;;;21.65;61.99;96634.56;10494508;28;20032;-29
2023/08/17 15:41:47;;;;;;;0.77;0.70;;;;;;;21.67;62.09;96625.22;10487679;28;20410;-30
2023/08/17 15:46:50;;;;;;;0.40;0.40;;;;;;;21.67;62.12;96627.78;10493474;28;20498;-29
2023/08/17 15:51:50;;;;;;;0.60;0.60;;;;;;;21.68;62.20;96637.09;10485555;28;20403;-31
2023/08/17 15:56:51;;;;;;;0.50;0.50;;;;;;;21.66;61.71;96627.78;10493931;28;20048;-32
2023/08/17 16:01:51;;;;;;;0.70;0.70;;;;;;;21.65;61.86;96624.38;10491901;28;20060;-30
2023/08/17 16:06:52;;;;;;;0.50;0.50;;;;;;;21.66;61.87;96617.59;10491611;28;20614;-30
2023/08/17 16:11:53;;;;;;;1.55;0.95;;;;;;;21.65;62.01;96614.19;10486149;28;20040;-31
2023/08/17 16:16:55;;;;;;;2.10;1.27;;;;;;;21.67;61.70;96620.13;10484403;28;20082;-29
2023/08/17 16:21:55;;;;;;;1.90;1.27;;;;;;;21.65;61.81;96605.72;10492523;28;20043;-29
2023/08/17 16:26:55;;;;;;;1.63;1.53;;;;;;;21.65;61.83;96611.63;10484226;28;20035;-29
2023/08/17 16:32:03;;;;;;;3.27;1.50;;;;;;;21.68;61.83;96603.97;10492515;28;20313;-29
2023/08/17 16:37:03;;;;;;;3.20;1.40;;;;;;;21.67;61.82;96597.19;10486275;28;20298;-29
2023/08/17 16:42:04;;;;;;;3.20;1.50;;;;;;;21.68;61.96;96596.34;10488323;28;20029;-29
2023/08/17 16:47:04;;;;;;;3.30;1.15;;;;;;;21.68;61.71;96596.34;10492004;28;20491;-29
2023/08/17 16:52:05;;;;;;;1.47;1.37;;;;;;;21.67;61.81;96589.56;10489161;28;20046;-29
2023/08/17 16:57:05;;;;;;;1.50;1.02;;;;;;;21.69;61.88;96589.50;10491808;28;20791;-29
2023/08/17 17:02:07;;;;;;;2.43;0.93;;;;;;;21.69;61.81;96594.59;10487586;28;20266;-31
2023/08/17 17:07:07;;;;;;;2.35;0.90;;;;;;;21.68;61.92;96591.22;10492068;28;20028;-29
2023/08/17 17:12:08;;;;;;;1.47;1.10;;;;;;;21.65;61.89;96592.97;10484512;28;20025;-29
2023/08/17 17:17:08;;;;;;;1.20;0.70;;;;;;;21.68;61.96;96601.44;10488137;28;20036;-29
2023/08/17 17:22:08;;;;;;;1.40;1.10;;;;;;;21.69;61.84;96602.25;10486382;28;20487;-29
2023/08/17 17:27:09;;;;;;;1.37;1.17;;;;;;;21.68;61.84;96603.97;10483878;28;20024;-30
2023/08/17 17:32:09;;;;;;;1.40;1.10;;;;;;;21.70;61.83;96614.97;10491199;28;20028;-31
2023/08/17 17:37:10;;;;;;;1.00;1.00;;;;;;;21.69;61.87;96618.41;10486575;28;20895;-28
2023/08/17 17:42:10;;;;;;;1.00;0.83;;;;;;;21.69;61.87;96613.31;10490577;28;20029;-29
2023/08/17 17:47:10;;;;;;;1.03;0.93;;;;;;;21.70;61.98;96614.97;10482421;28;20028;-30
2023/08/17 17:52:11;;;;;;;1.60;1.10;;;;;;;21.70;61.94;96606.47;10490501;28;20032;-29
2023/08/17 17:57:11;;;;;;;1.23;1.00;;;;;;;21.70;61.94;96609.88;10483310;28;20032;-29
2023/08/17 18:02:12;;;;;;;1.10;1.00;;;;;;;21.69;61.76;96608.22;10482077;28;20032;-29
2023/08/17 18:07:12;;;;;;;1.52;1.00;;;;;;;21.70;61.91;96604.78;10490664;28;20146;-29
2023/08/17 18:12:12;;;;;;;0.90;0.90;;;;;;;21.69;61.58;96603.09;10488706;28;20029;-29
2023/08/17 18:17:13;;;;;;;1.73;0.97;;;;;;;21.70;61.81;96614.13;10497566;28;20025;-29
2023/08/17 18:22:13;;;;;;;1.00;1.00;;;;;;;21.70;61.87;96614.97;10490697;28;20078;-29
2023/08/17 18:27:13;;;;;;;2.10;1.07;;;;;;;21.70;61.84;96614.97;10497377;28;20274;-29
2023/08/17 18:32:14;;;;;;;1.00;0.90;;;;;;;21.68;61.67;96611.63;10494908;28;20020;-30
2023/08/17 18:37:14;;;;;;;0.77;0.77;;;;;;;21.69;61.66;96618.41;10487833;28;20549;-30
2023/08/17 18:42:14;;;;;;;1.07;0.80;;;;;;;21.69;61.74;96620.94;10496586;28;20036;-29
2023/08/17 18:47:15;;;;;;;0.80;0.80;;;;;;;21.68;61.74;96611.63;10490866;28;20034;-29
2023/08/17 18:52:15;;;;;;;1.05;0.95;;;;;;;21.66;61.61;96613.31;10496294;28;20071;-30
2023/08/17 18:57:16;;;;;;;1.07;0.80;;;;;;;21.67;61.59;96615.03;10489360;28;20036;-28
2023/08/17 19:02:16;;;;;;;1.10;0.93;;;;;;;21.68;61.56;96615.88;10494043;28;20274;-30
2023/08/17 19:07:17;;;;;;;0.80;0.80;;;;;;;21.68;61.67;96626.91;10490224;28;20402;-29
2023/08/17 19:12:17;;;;;;;1.05;0.95;;;;;;;21.68;61.51;96626.91;10490593;28;20032;-29
2023/08/17 19:17:18;;;;;;;0.80;0.75;;;;;;;21.70;61.69;96630.28;10495393;28;20067;-30
2023/08/17 19:22:19;;;;;;;0.95;0.95;;;;;;;21.69;61.57;96622.63;10487582;28;20033;-29
2023/08/17 19:27:19;;;;;;;1.10;1.00;;;;;;;21.70;61.80;96627.72;10496246;28;20037;-30
2023/08/17 19:32:22;;;;;;;1.80;1.03;;;;;;;21.68;61.55;96626.91;10484451;28;20629;-29
2023/08/17 19:37:22;;;;;;;0.80;0.80;;;;;;;21.68;61.52;96637.09;10495275;28;20483;-29
2023/08/17 19:42:23;;;;;;;0.90;0.70;;;;;;;21.68;61.50;96634.56;10486637;28;20036;-30
2023/08/17 19:47:23;;;;;;;1.10;1.00;;;;;;;21.69;61.23;96635.38;10494992;28;20032;-29
2023/08/17 19:52:24;;;;;;;0.87;0.73;;;;;;;21.69;61.45;96643.88;10490186;28;20024;-30
2023/08/17 19:57:25;;;;;;;0.63;0.63;;;;;;;21.72;61.44;96643.00;10493632;28;20509;-30
2023/08/17 20:02:25;;;;;;;0.73;0.73;;;;;;;21.70;61.49;96637.91;10492744;28;20278;-29
2023/08/17 20:07:25;;;;;;;1.10;1.00;;;;;;;21.69;61.36;96638.78;10485106;28;20610;-29
2023/08/17 20:12:28;;;;;;;0.77;0.70;;;;;;;21.70;61.38;96643.00;10492513;28;20274;-29
2023/08/17 20:17:29;;;;;;;0.90;0.80;;;;;;;21.71;61.35;96651.50;10484458;28;20036;-29
2023/08/17 20:22:30;;;;;;;0.80;0.80;;;;;;;21.71;61.36;96656.59;10492591;28;20418;-29
2023/08/17 20:27:30;;;;;;;0.90;0.83;;;;;;;21.69;61.26;96648.97;10489237;28;20051;-29
2023/08/17 20:32:31;;;;;;;0.93;0.83;;;;;;;21.69;60.99;96654.06;10488159;28;20032;-30
2023/08/17 20:37:31;;;;;;;0.90;0.60;;;;;;;21.69;61.10;96656.63;10492534;28;20024;-30
2023/08/17 20:42:31;;;;;;;1.10;0.70;;;;;;;21.68;61.13;96660.03;10485141;28;20033;-31
2023/08/17 20:47:34;;;;;;;0.77;0.60;;;;;;;21.69;61.13;96669.38;10491927;28;20042;-29
2023/08/17 20:52:34;;;;;;;0.68;0.60;;;;;;;21.70;60.84;96671.03;10490691;28;20021;-29
2023/08/17 20:57:35;;;;;;;0.83;0.80;;;;;;;21.70;61.06;96665.94;10491713;28;20039;-29
2023/08/17 21:02:35;;;;;;;0.82;0.82;;;;;;;21.71;61.29;96662.53;10486226;28;20041;-29
2023/08/17 21:07:36;;;;;;;0.70;0.70;;;;;;;21.72;60.98;96659.13;10491436;28;20024;-29
2023/08/17 21:12:36;;;;;;;0.80;0.80;;;;;;;21.73;61.15;96655.69;10482910;28;20028;-29
2023/08/17 21:17:36;;;;;;;0.80;0.80;;;;;;;21.74;61.26;96657.38;10491427;28;20422;-29
2023/08/17 21:22:39;;;;;;;1.10;0.87;;;;;;;21.75;61.28;96654.00;10488164;28;20066;-29
2023/08/17 21:27:39;;;;;;;0.68;0.68;;;;;;;21.73;61.54;96653.16;10489643;28;20032;-30
2023/08/17 21:32:40;;;;;;;1.23;0.90;;;;;;;21.74;61.01;96651.47;10487025;28;20036;-29
2023/08/17 21:37:42;;;;;;;0.82;0.82;;;;;;;21.73;60.81;96650.59;10487884;28;20044;-29
2023/08/17 21:42:43;;;;;;;0.80;0.73;;;;;;;21.72;61.41;96656.56;10487336;28;20040;-30
2023/08/17 21:47:43;;;;;;;1.00;0.67;;;;;;;21.67;60.85;96645.63;10497187;28;20032;-29
2023/08/17 21:52:43;;;;;;;0.70;0.70;;;;;;;21.73;60.97;96658.25;10498848;28;20052;-30
2023/08/17 21:57:44;;;;;;;1.37;0.90;;;;;;;21.72;60.79;96656.56;10494997;28;20473;-29
2023/08/17 22:02:44;;;;;;;1.27;0.80;;;;;;;21.71;60.46;96656.59;10497957;28;20082;-29
2023/08/17 22:07:45;;;;;;;0.60;0.60;;;;;;;21.72;60.84;96654.03;10489399;28;20576;-31
2023/08/17 22:12:45;;;;;;;0.80;0.70;;;;;;;21.69;60.62;96656.63;10497453;28;20032;-29
2023/08/17 22:17:45;;;;;;;1.00;0.80;;;;;;;21.70;60.78;96655.75;10496145;28;20119;-29
2023/08/17 22:22:46;;;;;;;1.13;0.70;;;;;;;21.71;60.83;96652.34;10495620;28;20029;-29
2023/08/17 22:27:47;;;;;;;0.60;0.60;;;;;;;21.70;60.72;96645.56;10493983;28;20222;-29
2023/08/17 22:32:47;;;;;;;1.17;0.57;;;;;;;21.71;60.37;96648.97;10488234;28;20066;-30
2023/08/17 22:37:48;;;;;;;1.00;0.50;;;;;;;21.70;60.65;96645.56;10496897;28;20093;-30
2023/08/17 22:42:50;;;;;;;0.70;0.70;;;;;;;21.71;60.68;96649.78;10493319;28;20029;-29
2023/08/17 22:47:51;;;;;;;0.52;0.52;;;;;;;21.70;60.71;96644.69;10496579;28;20081;-30
2023/08/17 22:52:53;;;;;;;0.80;0.60;;;;;;;21.71;60.62;96644.69;10489779;28;20352;-29
2023/08/17 22:57:54;;;;;;;0.77;0.68;;;;;;;21.71;60.90;96656.59;10493286;28;20387;-29
2023/08/17 23:02:54;;;;;;;0.63;0.63;;;;;;;21.72;60.84;96654.03;10493011;28;20032;-31
2023/08/17 23:07:54;;;;;;;0.70;0.70;;;;;;;21.72;60.66;96648.09;10489870;28;20037;-30
2023/08/17 23:12:55;;;;;;;0.70;0.70;;;;;;;21.69;60.72;96643.88;10494741;28;20286;-29
2023/08/17 23:17:55;;;;;;;0.50;0.50;;;;;;;21.69;60.63;96648.97;10490265;28;20401;-30